Time;durP1;ratioP1;P1;durP2;ratioP2;P2;SDS_P1;SDS_P2;PMS_P1;PMS_P2;Temp;Humidity;BMP_temperature;BMP_pressure;BME280_temperature;BME280_humidity;BME280_pressure;Samples;Min_cycle;Max_cycle;Signal;HPM_P1;HPM_P2
2022/11/17 00:01:37;;;;;;;;;;;;;;;8.27;92.87;98104.66;5075910;28;19960;-71
2022/11/17 00:04:05;;;;;;;;;;;;;;;8.24;93.41;98098.75;5077093;28;19924;-71
2022/11/17 00:06:34;;;;;;;;;;;;;;;8.22;93.73;98105.56;5077321;28;20286;-70
2022/11/17 00:09:03;;;;;;;;;;;;;;;8.21;93.57;98103.88;5077304;28;20264;-70
2022/11/17 00:14:31;;;;;;;;;;;;;;;8.22;93.84;98103.00;5076908;28;19936;-70
2022/11/17 00:17:00;;;;;;;;;;;;;;;8.22;93.21;98111.47;5077089;28;19928;-70
2022/11/17 00:22:07;;;;;;;;;;;;;;;8.20;93.71;98107.28;5077074;28;20341;-71
2022/11/17 00:24:35;;;;;;;;;;;;;;;8.15;93.25;98109.06;5076727;28;19928;-71
2022/11/17 00:27:03;;;;;;;;;;;;;;;8.13;93.28;98098.09;5076961;28;20299;-71
2022/11/17 00:29:32;;;;;;;;;;;;;;;8.10;93.26;98102.38;5076619;28;20370;-70
2022/11/17 00:34:49;;;;;;;;;;;;;;;8.06;93.81;98105.81;5076456;28;20447;-71
2022/11/17 00:37:17;;;;;;;;;;;;;;;8.08;93.41;98110.88;5076413;28;19924;-70
2022/11/17 00:39:46;;;;;;;;;;;;;;;8.08;93.41;98113.41;5075115;28;19974;-70
2022/11/17 00:42:14;;;;;;;;;;;;;;;8.06;93.74;98110.88;5076722;28;19925;-70
2022/11/17 00:44:43;;;;;;;;;;;;;;;8.10;94.06;98115.06;5076678;28;19925;-70
2022/11/17 00:47:13;;;;;;;;;;;;;;;8.13;93.48;98109.91;5076337;28;20042;-70
2022/11/17 00:49:41;;;;;;;;;;;;;;;8.17;93.38;98107.34;5076761;28;20290;-70
2022/11/17 00:52:10;;;;;;;;;;;;;;;8.17;93.72;98107.34;5076532;28;20290;-70
2022/11/17 00:54:38;;;;;;;;;;;;;;;8.13;93.53;98113.34;5074939;28;19936;-70
2022/11/17 00:57:07;;;;;;;;;;;;;;;8.13;93.46;98106.56;5076475;28;20344;-71
2022/11/17 00:59:36;;;;;;;;;;;;;;;8.15;93.65;98114.16;5076051;28;19931;-71
2022/11/17 01:02:04;;;;;;;;;;;;;;;8.16;93.15;98111.56;5076026;28;19925;-71
2022/11/17 01:04:34;;;;;;;;;;;;;;;8.17;93.04;98114.94;5075889;28;19978;-71
2022/11/17 01:07:02;;;;;;;;;;;;;;;8.19;93.63;98110.69;5075915;28;19954;-71
2022/11/17 01:09:30;;;;;;;;;;;;;;;8.18;93.71;98103.94;5075863;28;19925;-71
2022/11/17 01:11:59;;;;;;;;;;;;;;;8.19;93.57;98106.44;5074919;28;19982;-71
2022/11/17 01:14:28;;;;;;;;;;;;;;;8.21;93.43;98116.56;5075778;28;19925;-71
2022/11/17 01:16:57;;;;;;;;;;;;;;;8.19;93.89;98113.22;5075790;28;19956;-71
2022/11/17 01:19:25;;;;;;;;;;;;;;;8.18;93.71;98114.09;5075603;28;19931;-70
2022/11/17 01:21:55;;;;;;;;;;;;;;;8.17;93.29;98117.50;5075587;28;19970;-71
2022/11/17 01:24:23;;;;;;;;;;;;;;;8.19;93.38;98110.69;5075610;28;20011;-71
2022/11/17 01:26:52;;;;;;;;;;;;;;;8.18;93.38;98109.03;5075846;28;19924;-71
2022/11/17 01:29:20;;;;;;;;;;;;;;;8.19;92.97;98110.69;5075445;28;19929;-71
2022/11/17 01:31:50;;;;;;;;;;;;;;;8.19;92.66;98105.59;5075734;28;19928;-71
2022/11/17 01:34:19;;;;;;;;;;;;;;;8.21;93.85;98108.94;5075174;28;20016;-71
2022/11/17 01:39:28;;;;;;;;;;;;;;;8.20;92.83;98108.13;5075259;28;19929;-69
2022/11/17 01:41:57;;;;;;;;;;;;;;;8.20;92.56;98104.75;5075297;28;19928;-71
2022/11/17 01:44:35;;;;;;;;;;;;;;;8.18;93.03;98109.03;5075418;28;19925;-71
2022/11/17 01:47:05;;;;;;;;;;;;;;;8.18;92.89;98103.94;5075197;28;19924;-71
2022/11/17 01:49:33;;;;;;;;;;;;;;;8.17;93.52;98117.50;5075417;28;19924;-71
2022/11/17 01:52:04;;;;;;;;;;;;;;;8.16;92.88;98110.75;5075529;28;19964;-70
2022/11/17 01:54:36;;;;;;;;;;;;;;;8.15;93.07;98115.00;5075297;28;20374;-71
2022/11/17 01:57:11;;;;;;;;;;;;;;;8.15;92.68;98120.06;5074986;28;20374;-71
2022/11/17 01:59:40;;;;;;;;;;;;;;;8.16;92.80;98103.13;5074864;28;19970;-72
2022/11/17 02:02:09;;;;;;;;;;;;;;;8.17;93.34;98097.16;5075158;28;19928;-72
2022/11/17 02:04:40;;;;;;;;;;;;;;;8.17;93.47;98095.47;5074791;28;19924;-72
2022/11/17 02:07:13;;;;;;;;;;;;;;;8.18;92.75;98101.41;5075006;28;20382;-71
2022/11/17 02:09:43;;;;;;;;;;;;;;;8.17;93.51;98102.25;5074765;28;19928;-72
2022/11/17 02:12:13;;;;;;;;;;;;;;;8.13;92.55;98095.56;5074712;28;20009;-72
2022/11/17 02:14:42;;;;;;;;;;;;;;;8.13;93.91;98090.47;5074597;28;20268;-70
2022/11/17 02:17:10;;;;;;;;;;;;;;;8.13;92.89;98087.94;5074804;28;19924;-70
2022/11/17 02:19:43;;;;;;;;;;;;;;;8.07;92.99;98074.47;5074552;28;20371;-70
2022/11/17 02:22:22;;;;;;;;;;;;;;;8.06;93.69;98069.41;5074497;28;19931;-69
2022/11/17 02:25:01;;;;;;;;;;;;;;;8.04;93.16;98061.81;5074591;28;19928;-71
2022/11/17 02:27:46;;;;;;;;;;;;;;;8.02;93.30;98058.47;5074350;28;19970;-71
2022/11/17 02:30:16;;;;;;;;;;;;;;;7.99;93.10;98053.41;5074633;28;19924;-71
2022/11/17 02:32:50;;;;;;;;;;;;;;;7.91;93.16;98054.41;5074355;28;19928;-70
2022/11/17 02:35:21;;;;;;;;;;;;;;;7.85;92.63;98049.44;5074089;28;19924;-70
2022/11/17 02:37:53;;;;;;;;;;;;;;;7.83;93.58;98052.00;5073148;28;19970;-72
2022/11/17 02:40:25;;;;;;;;;;;;;;;7.78;93.65;98058.00;5074205;28;19929;-72
2022/11/17 02:45:37;;;;;;;;;;;;;;;7.63;93.83;98033.69;5074185;28;19924;-71
2022/11/17 02:48:11;;;;;;;;;;;;;;;7.65;93.20;98036.22;5074420;28;19946;-71
2022/11/17 02:50:40;;;;;;;;;;;;;;;7.65;93.54;98032.00;5074108;28;19978;-71
2022/11/17 02:53:09;;;;;;;;;;;;;;;7.62;93.23;98021.88;5074028;28;19924;-71
2022/11/17 02:55:37;;;;;;;;;;;;;;;7.57;92.82;98023.66;5074026;28;19970;-71
2022/11/17 02:58:11;;;;;;;;;;;;;;;7.54;93.08;98031.31;5074246;28;19924;-71
2022/11/17 03:00:44;;;;;;;;;;;;;;;7.52;94.04;98030.50;5074050;28;19928;-71
2022/11/17 03:03:30;;;;;;;;;;;;;;;7.48;93.14;98036.50;5074243;28;20002;-71
2022/11/17 03:06:03;;;;;;;;;;;;;;;7.40;93.28;98036.59;5074269;28;19924;-71
2022/11/17 03:08:38;;;;;;;;;;;;;;;7.37;93.55;98040.88;5073871;28;19925;-72
2022/11/17 03:11:08;;;;;;;;;;;;;;;7.40;93.52;98043.38;5007480;28;19932;-72
2022/11/17 03:13:48;;;;;;;;;;;;;;;7.38;93.22;98040.00;5073910;28;19925;-72
2022/11/17 03:16:23;;;;;;;;;;;;;;;7.35;92.94;98037.50;5074179;28;19929;-71
2022/11/17 03:18:59;;;;;;;;;;;;;;;7.37;92.66;98045.94;5073710;28;19932;-71
2022/11/17 03:21:29;;;;;;;;;;;;;;;7.35;92.88;98051.03;5073790;28;19925;-72
2022/11/17 03:24:02;;;;;;;;;;;;;;;7.32;92.52;98048.53;5073758;28;19932;-72
2022/11/17 03:26:33;;;;;;;;;;;;;;;7.36;93.20;98054.44;5073761;28;19928;-72
2022/11/17 03:29:06;;;;;;;;;;;;;;;7.37;93.50;98051.00;5073056;28;19924;-72
2022/11/17 03:31:36;;;;;;;;;;;;;;;7.41;93.51;98060.28;5074040;28;20317;-71
2022/11/17 03:34:07;;;;;;;;;;;;;;;7.47;92.69;98056.78;5073433;28;19925;-72
2022/11/17 03:36:37;;;;;;;;;;;;;;;7.54;93.04;98064.31;5076369;28;19978;-72
2022/11/17 03:39:08;;;;;;;;;;;;;;;7.58;92.82;98054.97;5077834;28;19924;-72
2022/11/17 03:41:40;;;;;;;;;;;;;;;7.52;92.76;98060.94;5077682;28;19925;-71
2022/11/17 03:44:10;;;;;;;;;;;;;;;7.51;93.58;98064.34;5077563;28;19931;-70
2022/11/17 03:46:39;;;;;;;;;;;;;;;7.51;93.09;98059.25;5077455;28;19925;-72
2022/11/17 03:49:11;;;;;;;;;;;;;;;7.51;93.48;98066.88;5077573;28;19931;-73
2022/11/17 03:51:40;;;;;;;;;;;;;;;7.56;93.28;98065.13;5077613;28;20405;-72
2022/11/17 03:54:09;;;;;;;;;;;;;;;7.60;93.22;98056.59;5077771;28;19928;-72
2022/11/17 03:56:42;;;;;;;;;;;;;;;7.57;92.82;98059.19;5077538;28;19931;-71
2022/11/17 03:59:15;;;;;;;;;;;;;;;7.56;92.95;98052.41;5077169;28;19931;-70
2022/11/17 04:01:43;;;;;;;;;;;;;;;7.52;93.64;98058.41;5077196;28;20008;-71
2022/11/17 04:04:14;;;;;;;;;;;;;;;7.51;93.31;98061.81;5077104;28;19932;-72
2022/11/17 04:06:42;;;;;;;;;;;;;;;7.52;93.39;98055.88;5077138;28;19928;-72
2022/11/17 04:09:11;;;;;;;;;;;;;;;7.55;93.31;98066.00;5077010;28;19925;-72
2022/11/17 04:16:57;;;;;;;;;;;;;;;7.53;93.71;98072.78;5076904;28;19924;-72
2022/11/17 04:19:25;;;;;;;;;;;;;;;7.52;93.97;98073.66;5076725;28;19939;-72
2022/11/17 04:21:54;;;;;;;;;;;;;;;7.50;93.43;98080.44;5076913;28;20393;-71
2022/11/17 04:24:22;;;;;;;;;;;;;;;7.48;93.59;98072.03;5076743;28;19928;-72
2022/11/17 04:29:30;;;;;;;;;;;;;;;7.50;93.53;98070.28;5076706;28;19970;-71
2022/11/17 04:31:58;;;;;;;;;;;;;;;7.53;94.01;98072.78;5076548;28;20298;-71
2022/11/17 04:34:27;;;;;;;;;;;;;;;7.49;93.76;98071.13;5076578;28;19946;-71
2022/11/17 04:36:55;;;;;;;;;;;;;;;7.51;93.88;98061.81;5076477;28;20382;-71
2022/11/17 04:39:23;;;;;;;;;;;;;;;7.53;94.43;98070.25;5076386;28;19929;-71
2022/11/17 04:41:55;;;;;;;;;;;;;;;7.51;93.58;98068.59;5076586;28;20375;-72
2022/11/17 04:44:24;;;;;;;;;;;;;;;7.52;94.16;98063.50;5077010;28;19932;-72
2022/11/17 04:46:55;;;;;;;;;;;;;;;7.51;94.07;98064.34;5075356;28;19936;-72
2022/11/17 04:49:25;;;;;;;;;;;;;;;7.50;94.23;98062.69;5076325;28;19924;-71
2022/11/17 04:51:53;;;;;;;;;;;;;;;7.49;94.13;98063.53;5076397;28;20400;-72
2022/11/17 04:54:23;;;;;;;;;;;;;;;7.49;93.87;98066.06;5076604;28;19925;-71
2022/11/17 04:56:52;;;;;;;;;;;;;;;7.48;94.36;98066.94;5076508;28;19925;-71
2022/11/17 04:59:20;;;;;;;;;;;;;;;7.40;94.05;98066.22;5076048;28;19932;-71
2022/11/17 05:01:49;;;;;;;;;;;;;;;7.36;93.69;98070.50;5076260;28;19966;-71
2022/11/17 05:04:54;;;;;;;;;;;;;;;7.32;94.05;98063.78;5076309;28;19935;-71
2022/11/17 05:07:09;;;;;;;;;;;;;;;7.35;93.46;98067.97;5075779;28;19970;-71
2022/11/17 05:09:37;;;;;;;;;;;;;;;7.40;94.21;98071.28;5074613;28;19924;-71
2022/11/17 05:14:46;;;;;;;;;;;;;;;7.42;93.86;98069.56;5076101;28;19924;-71
2022/11/17 05:17:14;;;;;;;;;;;;;;;7.42;94.34;98054.31;5075766;28;20405;-71
2022/11/17 05:19:44;;;;;;;;;;;;;;;7.43;93.50;98063.63;5074452;28;19935;-71
2022/11/17 05:24:51;;;;;;;;;;;;;;;7.48;94.66;98071.19;5075694;28;19928;-71
2022/11/17 05:27:19;;;;;;;;;;;;;;;7.48;94.00;98074.56;5075762;28;19925;-71
2022/11/17 05:29:49;;;;;;;;;;;;;;;7.42;94.29;98065.31;5076355;28;19932;-71
2022/11/17 05:32:17;;;;;;;;;;;;;;;7.44;94.74;98070.38;5075964;28;19924;-71
2022/11/17 05:34:47;;;;;;;;;;;;;;;7.49;94.57;98066.06;5075128;28;19931;-71
2022/11/17 05:37:16;;;;;;;;;;;;;;;7.52;94.73;98071.09;5075937;28;20325;-71
2022/11/17 05:39:44;;;;;;;;;;;;;;;7.55;94.52;98070.22;5075552;28;19929;-71
2022/11/17 05:42:12;;;;;;;;;;;;;;;7.52;94.03;98071.09;5075602;28;19932;-71
2022/11/17 05:44:41;;;;;;;;;;;;;;;7.47;93.83;98067.78;5075105;28;19931;-71
2022/11/17 05:47:09;;;;;;;;;;;;;;;7.44;94.06;98077.97;5074203;28;19924;-71
2022/11/17 05:49:38;;;;;;;;;;;;;;;7.47;94.85;98072.03;5075104;28;19925;-70
2022/11/17 05:52:08;;;;;;;;;;;;;;;7.46;94.53;98073.75;5075023;28;19931;-70
2022/11/17 05:54:36;;;;;;;;;;;;;;;7.47;94.30;98069.47;5074324;28;19924;-72
2022/11/17 05:57:08;;;;;;;;;;;;;;;7.47;94.31;98072.03;5074977;28;20015;-72
2022/11/17 05:59:39;;;;;;;;;;;;;;;7.42;93.77;98082.25;5074621;28;19986;-72
2022/11/17 06:02:10;;;;;;;;;;;;;;;7.42;95.02;98084.78;5074884;28;20011;-72
2022/11/17 06:04:38;;;;;;;;;;;;;;;7.43;94.15;98083.94;5075100;28;20375;-72
2022/11/17 06:07:09;;;;;;;;;;;;;;;7.44;94.49;98073.75;5074771;28;20007;-72
2022/11/17 06:09:40;;;;;;;;;;;;;;;7.45;93.83;98079.66;5075245;28;19986;-72
2022/11/17 06:12:10;;;;;;;;;;;;;;;7.42;94.05;98085.63;5074660;28;19925;-72
2022/11/17 06:14:39;;;;;;;;;;;;;;;7.39;94.77;98079.75;5074879;28;20375;-72
2022/11/17 06:17:10;;;;;;;;;;;;;;;7.31;94.01;98092.56;5074558;28;19930;-72
2022/11/17 06:19:41;;;;;;;;;;;;;;;7.26;94.13;98098.53;5074509;28;20023;-70
2022/11/17 06:22:10;;;;;;;;;;;;;;;7.27;94.00;98090.91;5074800;28;19931;-72
2022/11/17 06:24:42;;;;;;;;;;;;;;;7.31;94.42;98091.72;5074489;28;20383;-72
2022/11/17 06:27:10;;;;;;;;;;;;;;;7.35;94.56;98099.25;5074352;28;19932;-72
2022/11/17 06:29:39;;;;;;;;;;;;;;;7.31;93.51;98101.88;5074984;28;20357;-71
2022/11/17 06:32:13;;;;;;;;;;;;;;;7.28;94.37;98091.75;5073136;28;19931;-71
2022/11/17 06:34:41;;;;;;;;;;;;;;;7.28;94.47;98104.44;5074263;28;19956;-72
2022/11/17 06:37:13;;;;;;;;;;;;;;;7.29;93.85;98106.94;5073636;28;20215;-71
2022/11/17 06:39:42;;;;;;;;;;;;;;;7.26;93.61;98103.63;5074504;28;20320;-72
2022/11/17 06:42:10;;;;;;;;;;;;;;;7.21;93.49;98100.31;5074123;28;19924;-71
2022/11/17 06:44:38;;;;;;;;;;;;;;;7.16;94.19;98102.06;5074087;28;19929;-72
2022/11/17 06:47:07;;;;;;;;;;;;;;;7.12;94.36;98101.28;5074106;28;19925;-72
2022/11/17 06:49:35;;;;;;;;;;;;;;;7.00;93.97;98108.19;5073606;28;19967;-72
2022/11/17 06:52:04;;;;;;;;;;;;;;;6.94;93.87;98105.69;5074288;28;20283;-72
2022/11/17 06:54:34;;;;;;;;;;;;;;;6.93;93.68;98101.50;5074078;28;19931;-71
2022/11/17 06:57:02;;;;;;;;;;;;;;;6.81;93.86;98099.09;5074296;28;19946;-71
2022/11/17 06:59:30;;;;;;;;;;;;;;;6.72;93.45;98095.81;5074205;28;20382;-71
2022/11/17 07:01:59;;;;;;;;;;;;;;;6.73;93.95;98101.72;5073805;28;19973;-71
2022/11/17 07:04:27;;;;;;;;;;;;;;;6.84;93.00;98101.63;5073459;28;19925;-71
2022/11/17 07:06:55;;;;;;;;;;;;;;;6.90;93.16;98099.00;5073371;28;19932;-71
2022/11/17 07:09:24;;;;;;;;;;;;;;;7.10;93.72;98097.06;5073369;28;19928;-71
2022/11/17 07:11:53;;;;;;;;;;;;;;;7.37;93.90;98091.63;5073198;28;19925;-71
2022/11/17 07:14:22;;;;;;;;;;;;;;;7.53;93.53;98097.34;5073644;28;20290;-71
2022/11/17 07:16:50;;;;;;;;;;;;;;;7.54;93.43;98099.84;5073453;28;19932;-70
2022/11/17 07:19:18;;;;;;;;;;;;;;;7.65;93.23;98110.69;5072374;28;19925;-70
2022/11/17 07:21:47;;;;;;;;;;;;;;;7.77;93.36;98107.13;5073600;28;19925;-70
2022/11/17 07:24:15;;;;;;;;;;;;;;;7.89;93.36;98096.78;5073233;28;20390;-70
2022/11/17 07:26:44;;;;;;;;;;;;;;;7.96;93.08;98100.91;5073446;28;19924;-70
2022/11/17 07:29:13;;;;;;;;;;;;;;;8.04;93.44;98104.13;5073603;28;19931;-70
2022/11/17 07:31:42;;;;;;;;;;;;;;;8.15;92.40;98103.97;5073384;28;19931;-70
2022/11/17 07:34:10;;;;;;;;;;;;;;;8.21;92.87;98102.16;5073408;28;20026;-70
2022/11/17 07:36:38;;;;;;;;;;;;;;;8.24;92.66;98114.00;5072985;28;19966;-70
2022/11/17 07:39:07;;;;;;;;;;;;;;;8.36;92.67;98119.75;5073212;28;19925;-70
2022/11/17 07:41:35;;;;;;;;;;;;;;;8.47;92.37;98117.03;5073311;28;19935;-70
2022/11/17 07:44:03;;;;;;;;;;;;;;;8.61;92.13;98112.53;5072987;28;20014;-70
2022/11/17 07:46:33;;;;;;;;;;;;;;;8.73;92.51;98104.69;5073269;28;20410;-70
2022/11/17 07:49:02;;;;;;;;;;;;;;;8.84;91.70;98110.38;5073376;28;19931;-70
2022/11/17 07:51:30;;;;;;;;;;;;;;;8.86;91.39;98106.09;5073326;28;20020;-70
2022/11/17 07:53:58;;;;;;;;;;;;;;;8.96;91.31;98116.94;5073278;28;19932;-70
2022/11/17 07:56:26;;;;;;;;;;;;;;;9.08;91.20;98115.00;5073268;28;19924;-70
2022/11/17 07:58:55;;;;;;;;;;;;;;;9.22;90.33;98120.63;5072956;28;19932;-70
2022/11/17 08:01:26;;;;;;;;;;;;;;;9.23;89.99;98112.16;5073230;28;19955;-70
2022/11/17 08:03:56;;;;;;;;;;;;;;;9.22;89.62;98110.47;5073195;28;19931;-70
2022/11/17 08:06:25;;;;;;;;;;;;;;;9.27;89.54;98112.91;5073014;28;20024;-71
2022/11/17 08:08:53;;;;;;;;;;;;;;;9.30;88.56;98118.78;5072043;28;19952;-70
2022/11/17 08:11:21;;;;;;;;;;;;;;;9.45;88.76;98118.44;5073226;28;19987;-70
2022/11/17 08:13:50;;;;;;;;;;;;;;;9.60;88.44;98122.38;5073063;28;20301;-70
2022/11/17 08:16:19;;;;;;;;;;;;;;;9.62;87.93;98119.81;5072796;28;20436;-70
2022/11/17 08:18:48;;;;;;;;;;;;;;;9.62;87.45;98117.25;5071877;28;19925;-70
2022/11/17 08:21:21;;;;;;;;;;;;;;;9.65;87.42;98120.56;5073603;28;19928;-70
2022/11/17 08:23:50;;;;;;;;;;;;;;;9.72;87.36;98122.09;5076748;28;19930;-70
2022/11/17 08:26:19;;;;;;;;;;;;;;;9.85;87.11;98125.22;5076482;28;19924;-70
2022/11/17 08:28:48;;;;;;;;;;;;;;;9.89;86.46;98114.06;5077040;28;20322;-70
2022/11/17 08:31:24;;;;;;;;;;;;;;;9.92;86.36;98111.47;5076433;28;19924;-71
2022/11/17 08:33:52;;;;;;;;;;;;;;;9.95;85.86;98109.69;5076546;28;19924;-70
2022/11/17 08:36:21;;;;;;;;;;;;;;;9.98;85.65;98114.69;5075834;28;20444;-70
2022/11/17 08:38:50;;;;;;;;;;;;;;;9.96;85.34;98123.25;5076427;28;19928;-70
2022/11/17 08:41:18;;;;;;;;;;;;;;;9.84;84.84;98126.06;5076005;28;19925;-69
2022/11/17 08:43:47;;;;;;;;;;;;;;;9.84;84.44;98131.16;5076404;28;20264;-70
2022/11/17 08:46:15;;;;;;;;;;;;;;;9.82;84.27;98133.75;5076322;28;19967;-70
2022/11/17 08:48:43;;;;;;;;;;;;;;;9.71;83.97;98142.53;5075956;28;20011;-69
2022/11/17 08:51:13;;;;;;;;;;;;;;;9.70;83.96;98140.81;5075670;28;19924;-69
2022/11/17 08:53:43;;;;;;;;;;;;;;;9.77;83.99;98139.81;5076228;28;19932;-69
2022/11/17 08:56:13;;;;;;;;;;;;;;;9.83;84.05;98138.00;5076617;28;19931;-69
2022/11/17 08:58:42;;;;;;;;;;;;;;;9.86;83.71;98137.09;5075948;28;19931;-69
2022/11/17 09:01:11;;;;;;;;;;;;;;;9.90;83.67;98142.06;5076126;28;19925;-69
2022/11/17 09:03:42;;;;;;;;;;;;;;;9.77;83.24;98134.72;5076044;28;19925;-69
2022/11/17 09:06:12;;;;;;;;;;;;;;;9.71;83.77;98142.53;5076121;28;19946;-69
2022/11/17 09:08:40;;;;;;;;;;;;;;;9.64;83.55;98149.47;5076571;28;20280;-70
2022/11/17 09:11:25;;;;;;;;;;;;;;;9.54;83.44;98147.97;5075373;28;20382;-70
2022/11/17 09:13:54;;;;;;;;;;;;;;;9.50;83.62;98156.56;5075921;28;19925;-70
2022/11/17 09:16:24;;;;;;;;;;;;;;;9.53;83.82;98155.63;5076404;28;19930;-70
2022/11/17 09:18:57;;;;;;;;;;;;;;;9.60;83.57;98152.13;5075887;28;19930;-70
2022/11/17 09:21:26;;;;;;;;;;;;;;;9.62;83.59;98156.28;5075903;28;20015;-70
2022/11/17 09:23:54;;;;;;;;;;;;;;;9.64;83.64;98149.47;5075588;28;19951;-70
2022/11/17 09:26:22;;;;;;;;;;;;;;;9.63;83.81;98146.94;5075567;28;19925;-70
2022/11/17 09:28:53;;;;;;;;;;;;;;;9.67;83.95;98153.66;5075592;28;19932;-70
2022/11/17 09:31:22;;;;;;;;;;;;;;;9.85;83.71;98154.09;5075537;28;19956;-70
2022/11/17 09:33:51;;;;;;;;;;;;;;;9.89;83.35;98152.28;5075027;28;20007;-70
2022/11/17 09:36:19;;;;;;;;;;;;;;;9.86;83.00;98149.84;5075172;28;19946;-70
2022/11/17 09:38:49;;;;;;;;;;;;;;;9.93;83.00;98157.28;5075516;28;19928;-70
2022/11/17 09:41:26;;;;;;;;;;;;;;;10.03;82.28;98163.84;5075301;28;19928;-70
2022/11/17 09:44:02;;;;;;;;;;;;;;;10.15;82.03;98150.00;5075241;28;19924;-69
2022/11/17 09:46:33;;;;;;;;;;;;;;;10.34;81.51;98156.34;5075289;28;19929;-70
2022/11/17 09:49:07;;;;;;;;;;;;;;;10.47;80.69;98152.63;5075437;28;19962;-70
2022/11/17 09:51:36;;;;;;;;;;;;;;;10.61;79.99;98158.22;5075098;28;19924;-70
2022/11/17 09:54:11;;;;;;;;;;;;;;;10.72;79.26;98152.84;5074938;28;19924;-71
2022/11/17 09:56:40;;;;;;;;;;;;;;;10.76;78.72;98151.88;5075009;28;20031;-70
2022/11/17 09:59:12;;;;;;;;;;;;;;;10.96;78.31;98159.00;5074979;28;19934;-70
2022/11/17 10:01:41;;;;;;;;;;;;;;;11.12;77.70;98155.16;5074911;28;19974;-70
2022/11/17 10:04:11;;;;;;;;;;;;;;;11.24;77.22;98154.81;5074836;28;19924;-70
2022/11/17 10:06:42;;;;;;;;;;;;;;;11.29;76.45;98158.09;5074996;28;20298;-71
2022/11/17 10:09:17;;;;;;;;;;;;;;;11.31;76.02;98156.31;5074951;28;19947;-71
2022/11/17 10:11:53;;;;;;;;;;;;;;;11.36;75.63;98159.59;5074739;28;19925;-71
2022/11/17 10:14:23;;;;;;;;;;;;;;;11.49;75.47;98160.94;5074593;28;19928;-71
2022/11/17 10:16:53;;;;;;;;;;;;;;;11.69;75.33;98158.63;5075153;28;19924;-70
2022/11/17 10:19:23;;;;;;;;;;;;;;;11.84;75.02;98160.75;5074509;28;19924;-70
2022/11/17 10:21:52;;;;;;;;;;;;;;;11.91;74.29;98159.69;5074428;28;19924;-71
2022/11/17 10:24:31;;;;;;;;;;;;;;;11.76;73.78;98160.13;5074683;28;20382;-71
2022/11/17 10:27:01;;;;;;;;;;;;;;;11.67;73.61;98151.88;5074361;28;20382;-71
2022/11/17 10:29:30;;;;;;;;;;;;;;;11.73;73.46;98156.84;5074351;28;19924;-71
2022/11/17 10:32:00;;;;;;;;;;;;;;;11.91;73.39;98153.72;5074880;28;19924;-71
2022/11/17 10:34:32;;;;;;;;;;;;;;;12.02;72.61;98155.06;5073133;28;19937;-71
2022/11/17 10:37:24;;;;;;;;;;;;;;;11.97;72.54;98149.25;5074624;28;19929;-71
2022/11/17 10:40:02;;;;;;;;;;;;;;;12.09;72.22;98137.81;5074225;28;19982;-71
2022/11/17 10:42:30;;;;;;;;;;;;;;;12.26;71.62;98150.06;5074463;28;19924;-70
2022/11/17 10:45:01;;;;;;;;;;;;;;;12.31;71.66;98148.22;5074056;28;19939;-71
2022/11/17 10:47:31;;;;;;;;;;;;;;;12.38;71.48;98149.69;5074289;28;20028;-71
2022/11/17 10:50:12;;;;;;;;;;;;;;;12.43;71.15;98150.38;5074102;28;19974;-71
2022/11/17 10:52:40;;;;;;;;;;;;;;;12.40;70.64;98158.13;5074039;28;19925;-71
2022/11/17 10:55:19;;;;;;;;;;;;;;;12.48;70.56;98146.75;5074031;28;19928;-70
2022/11/17 10:57:49;;;;;;;;;;;;;;;12.64;70.54;98144.53;5073967;28;19932;-71
2022/11/17 11:00:27;;;;;;;;;;;;;;;12.64;70.01;98137.66;5074041;28;20015;-70
2022/11/17 11:03:06;;;;;;;;;;;;;;;12.29;69.64;98139.72;5073926;28;19932;-71
2022/11/17 11:05:35;;;;;;;;;;;;;;;12.23;69.98;98139.94;5072992;28;20436;-71
2022/11/17 11:08:14;;;;;;;;;;;;;;;12.25;70.12;98138.16;5073937;28;19925;-72
2022/11/17 11:10:46;;;;;;;;;;;;;;;12.35;70.04;98139.53;5074220;28;19956;-72
2022/11/17 11:13:16;;;;;;;;;;;;;;;12.27;69.79;98141.50;5074015;28;19978;-71
2022/11/17 11:15:46;;;;;;;;;;;;;;;12.18;70.24;98132.41;5073874;28;19925;-72
2022/11/17 11:18:16;;;;;;;;;;;;;;;12.09;69.97;98125.84;5073852;28;19932;-71
2022/11/17 11:20:47;;;;;;;;;;;;;;;12.03;70.18;98122.66;5073807;28;19924;-72
2022/11/17 11:23:21;;;;;;;;;;;;;;;11.98;70.32;98130.47;5073975;28;20328;-71
2022/11/17 11:25:52;;;;;;;;;;;;;;;12.17;69.67;98135.84;5074131;28;20294;-71
2022/11/17 11:28:32;;;;;;;;;;;;;;;12.33;69.34;98125.97;5073779;28;19925;-72
2022/11/17 11:31:06;;;;;;;;;;;;;;;12.47;68.99;98119.50;5073335;28;20364;-71
2022/11/17 11:33:37;;;;;;;;;;;;;;;12.59;68.45;98118.25;5073400;28;19924;-70
2022/11/17 11:36:18;;;;;;;;;;;;;;;12.78;67.37;98119.28;5073385;28;20004;-71
2022/11/17 11:38:52;;;;;;;;;;;;;;;13.06;66.88;98111.50;5073687;28;19954;-71
2022/11/17 11:41:35;;;;;;;;;;;;;;;13.29;65.61;98121.78;5073586;28;19924;-72
2022/11/17 11:44:15;;;;;;;;;;;;;;;13.36;65.64;98112.97;5070594;28;19931;-70
2022/11/17 11:46:51;;;;;;;;;;;;;;;13.30;65.74;98108.03;5073229;28;20012;-72
2022/11/17 11:49:28;;;;;;;;;;;;;;;13.23;65.76;98112.56;5074108;28;20290;-71
2022/11/17 11:51:56;;;;;;;;;;;;;;;12.95;65.47;98114.44;5074044;28;19975;-72
2022/11/17 11:54:31;;;;;;;;;;;;;;;12.69;65.99;98114.50;5093272;28;19930;-71
2022/11/17 11:57:00;;;;;;;;;;;;;;;12.50;66.01;98118.56;5095323;28;19977;-72
2022/11/17 11:59:36;;;;;;;;;;;;;;;12.45;66.75;98135.78;5078383;28;19928;-72
2022/11/17 12:02:15;;;;;;;;;;;;;;;12.14;67.20;98135.13;5077588;28;19924;-72
2022/11/17 12:04:45;;;;;;;;;;;;;;;11.86;67.89;98141.09;5077088;28;19970;-72
2022/11/17 12:07:17;;;;;;;;;;;;;;;11.79;68.68;98144.72;5077049;28;19931;-72
2022/11/17 12:09:49;;;;;;;;;;;;;;;11.78;68.81;98137.91;5077336;28;19924;-72
2022/11/17 12:12:19;;;;;;;;;;;;;;;11.75;68.88;98145.69;5077463;28;19928;-71
2022/11/17 12:14:58;;;;;;;;;;;;;;;11.84;69.13;98142.84;5077283;28;19925;-72
2022/11/17 12:17:28;;;;;;;;;;;;;;;11.75;68.67;98148.25;5077282;28;19924;-71
2022/11/17 12:19:58;;;;;;;;;;;;;;;11.61;68.94;98149.50;5077094;28;20386;-71
2022/11/17 12:22:37;;;;;;;;;;;;;;;11.59;69.38;98146.97;5076952;28;19925;-71
2022/11/17 12:25:15;;;;;;;;;;;;;;;11.82;69.59;98144.63;5076720;28;19970;-72
2022/11/17 12:27:44;;;;;;;;;;;;;;;11.64;69.25;98129.78;5076992;28;19954;-71
2022/11/17 12:30:23;;;;;;;;;;;;;;;11.54;69.59;98132.69;5076982;28;19925;-71
2022/11/17 12:32:53;;;;;;;;;;;;;;;11.40;69.83;98133.06;5076686;28;19925;-71
2022/11/17 12:35:24;;;;;;;;;;;;;;;11.32;70.10;98132.47;5076583;28;20341;-71
2022/11/17 12:38:03;;;;;;;;;;;;;;;11.26;70.46;98138.56;5076867;28;20432;-71
2022/11/17 12:40:42;;;;;;;;;;;;;;;11.24;70.73;98149.72;5076822;28;19931;-71
2022/11/17 12:43:21;;;;;;;;;;;;;;;11.11;70.58;98149.22;5077125;28;19929;-71
2022/11/17 12:46:01;;;;;;;;;;;;;;;11.03;70.90;98150.31;5076334;28;19950;-71
2022/11/17 12:48:31;;;;;;;;;;;;;;;11.01;70.96;98152.06;5076513;28;19924;-71
2022/11/17 12:51:05;;;;;;;;;;;;;;;11.01;71.00;98149.53;5076408;28;19951;-71
2022/11/17 12:53:39;;;;;;;;;;;;;;;11.06;71.02;98155.34;5076266;28;19924;-71
2022/11/17 12:56:19;;;;;;;;;;;;;;;11.03;71.12;98155.41;5076941;28;19929;-71
2022/11/17 12:58:54;;;;;;;;;;;;;;;11.04;70.98;98163.03;5076427;28;20453;-71
2022/11/17 13:01:28;;;;;;;;;;;;;;;10.99;70.89;98164.03;5076219;28;19970;-71
2022/11/17 13:04:03;;;;;;;;;;;;;;;10.91;70.80;98165.94;5076042;28;19932;-71
2022/11/17 13:06:32;;;;;;;;;;;;;;;10.92;71.05;98170.19;5076446;28;20290;-72
2022/11/17 13:09:06;;;;;;;;;;;;;;;10.97;71.00;98169.19;5074823;28;20422;-71
2022/11/17 13:11:35;;;;;;;;;;;;;;;11.06;70.91;98166.38;5076181;28;19924;-72
2022/11/17 13:14:08;;;;;;;;;;;;;;;11.21;70.99;98160.84;5076226;28;19974;-72
2022/11/17 13:16:42;;;;;;;;;;;;;;;11.24;70.81;98159.94;5075905;28;20392;-71
2022/11/17 13:19:25;;;;;;;;;;;;;;;11.18;70.41;98157.56;5076053;28;19963;-71
2022/11/17 13:21:59;;;;;;;;;;;;;;;11.13;70.75;98156.84;5076421;28;20365;-72
2022/11/17 13:24:32;;;;;;;;;;;;;;;10.98;70.47;98153.00;5075913;28;19928;-72
2022/11/17 13:27:01;;;;;;;;;;;;;;;10.95;70.75;98147.97;5075588;28;20325;-70
2022/11/17 13:29:29;;;;;;;;;;;;;;;10.89;70.51;98142.19;5075885;28;20039;-71
2022/11/17 13:32:09;;;;;;;;;;;;;;;10.90;70.73;98151.50;5075468;28;19997;-71
2022/11/17 13:34:44;;;;;;;;;;;;;;;10.94;70.51;98155.66;5075568;28;19928;-72
2022/11/17 13:37:17;;;;;;;;;;;;;;;10.92;70.57;98154.88;5108248;28;19930;-71
2022/11/17 13:39:57;;;;;;;;;;;;;;;10.93;70.42;98143.78;5075654;28;20317;-71